sensor_id;sensor_type;location;lat;lon;timestamp;P1;durP1;ratioP1;P2;durP2;ratioP2
10731;SDS011;5417;42.686;23.244;2023-05-27T00:24:59;13.83;;;11.87;;
10731;SDS011;5417;42.686;23.244;2023-05-27T00:59:52;4.27;;;3.97;;
10731;SDS011;5417;42.686;23.244;2023-05-27T01:02:19;5.30;;;5.00;;
10731;SDS011;5417;42.686;23.244;2023-05-27T01:14:52;4.47;;;4.17;;
10731;SDS011;5417;42.686;23.244;2023-05-27T01:24:48;4.80;;;4.30;;
10731;SDS011;5417;42.686;23.244;2023-05-27T01:27:17;4.67;;;4.37;;
10731;SDS011;5417;42.686;23.244;2023-05-27T01:45:42;7.67;;;7.17;;
10731;SDS011;5417;42.686;23.244;2023-05-27T01:54:08;7.70;;;7.10;;
10731;SDS011;5417;42.686;23.244;2023-05-27T02:37:51;6.13;;;5.70;;
10731;SDS011;5417;42.686;23.244;2023-05-27T03:34:15;4.50;;;4.20;;
10731;SDS011;5417;42.686;23.244;2023-05-27T03:36:42;4.70;;;4.40;;
10731;SDS011;5417;42.686;23.244;2023-05-27T03:39:44;3.87;;;3.67;;
10731;SDS011;5417;42.686;23.244;2023-05-27T03:45:35;3.90;;;3.67;;
10731;SDS011;5417;42.686;23.244;2023-05-27T03:52:40;4.17;;;3.87;;
10731;SDS011;5417;42.686;23.244;2023-05-27T03:55:40;3.97;;;3.77;;
10731;SDS011;5417;42.686;23.244;2023-05-27T03:58:08;4.13;;;3.87;;
10731;SDS011;5417;42.686;23.244;2023-05-27T04:00:38;4.10;;;3.80;;
10731;SDS011;5417;42.686;23.244;2023-05-27T04:03:37;3.50;;;3.30;;
10731;SDS011;5417;42.686;23.244;2023-05-27T04:21:13;4.37;;;4.17;;
10731;SDS011;5417;42.686;23.244;2023-05-27T04:30:02;4.77;;;4.37;;
10731;SDS011;5417;42.686;23.244;2023-05-27T04:35:55;4.60;;;4.30;;
10731;SDS011;5417;42.686;23.244;2023-05-27T04:49:52;2.80;;;2.70;;
10731;SDS011;5417;42.686;23.244;2023-05-27T04:52:22;2.70;;;2.60;;
10731;SDS011;5417;42.686;23.244;2023-05-27T04:55:52;3.30;;;3.10;;
10731;SDS011;5417;42.686;23.244;2023-05-27T04:58:12;3.17;;;2.97;;
10731;SDS011;5417;42.686;23.244;2023-05-27T05:13:39;3.70;;;3.40;;
10731;SDS011;5417;42.686;23.244;2023-05-27T05:35:13;6.23;;;4.60;;
10731;SDS011;5417;42.686;23.244;2023-05-27T05:38:18;4.73;;;4.40;;
10731;SDS011;5417;42.686;23.244;2023-05-27T05:40:32;4.97;;;4.67;;
10731;SDS011;5417;42.686;23.244;2023-05-27T05:46:28;4.70;;;4.30;;
10731;SDS011;5417;42.686;23.244;2023-05-27T05:53:50;5.37;;;4.90;;
10731;SDS011;5417;42.686;23.244;2023-05-27T05:56:48;6.20;;;5.70;;
10731;SDS011;5417;42.686;23.244;2023-05-27T05:59:13;6.23;;;5.67;;
10731;SDS011;5417;42.686;23.244;2023-05-27T06:02:19;6.70;;;6.07;;
10731;SDS011;5417;42.686;23.244;2023-05-27T06:04:49;8.80;;;6.13;;
10731;SDS011;5417;42.686;23.244;2023-05-27T06:07:15;6.20;;;5.70;;
10731;SDS011;5417;42.686;23.244;2023-05-27T06:09:44;6.63;;;6.00;;
10731;SDS011;5417;42.686;23.244;2023-05-27T06:12:14;6.23;;;5.77;;
10731;SDS011;5417;42.686;23.244;2023-05-27T06:14:41;5.80;;;5.50;;
10731;SDS011;5417;42.686;23.244;2023-05-27T06:17:08;6.57;;;5.97;;
10731;SDS011;5417;42.686;23.244;2023-05-27T06:19:34;6.73;;;6.13;;
10731;SDS011;5417;42.686;23.244;2023-05-27T06:22:08;5.83;;;5.43;;
10731;SDS011;5417;42.686;23.244;2023-05-27T06:27:47;7.00;;;6.47;;
10731;SDS011;5417;42.686;23.244;2023-05-27T06:30:44;7.10;;;6.50;;
10731;SDS011;5417;42.686;23.244;2023-05-27T06:33:04;7.23;;;6.67;;
10731;SDS011;5417;42.686;23.244;2023-05-27T06:35:52;7.83;;;7.13;;
10731;SDS011;5417;42.686;23.244;2023-05-27T06:39:16;7.50;;;6.80;;
10731;SDS011;5417;42.686;23.244;2023-05-27T06:42:03;7.23;;;6.63;;
10731;SDS011;5417;42.686;23.244;2023-05-27T06:44:32;9.10;;;7.47;;
10731;SDS011;5417;42.686;23.244;2023-05-27T06:47:00;8.90;;;8.17;;
10731;SDS011;5417;42.686;23.244;2023-05-27T06:49:27;8.43;;;7.90;;
10731;SDS011;5417;42.686;23.244;2023-05-27T06:55:27;8.80;;;8.10;;
10731;SDS011;5417;42.686;23.244;2023-05-27T06:59:13;8.97;;;8.27;;
10731;SDS011;5417;42.686;23.244;2023-05-27T07:17:35;8.77;;;8.17;;
10731;SDS011;5417;42.686;23.244;2023-05-27T07:21:05;9.57;;;8.83;;
10731;SDS011;5417;42.686;23.244;2023-05-27T07:23:18;8.23;;;7.53;;
10731;SDS011;5417;42.686;23.244;2023-05-27T07:25:45;8.57;;;7.87;;
10731;SDS011;5417;42.686;23.244;2023-05-27T07:28:12;8.10;;;7.60;;
10731;SDS011;5417;42.686;23.244;2023-05-27T07:30:45;8.30;;;7.60;;
10731;SDS011;5417;42.686;23.244;2023-05-27T07:33:23;7.97;;;7.10;;
10731;SDS011;5417;42.686;23.244;2023-05-27T07:35:50;6.90;;;6.20;;
10731;SDS011;5417;42.686;23.244;2023-05-27T07:38:17;9.27;;;8.30;;
10731;SDS011;5417;42.686;23.244;2023-05-27T07:40:44;7.67;;;6.97;;
10731;SDS011;5417;42.686;23.244;2023-05-27T07:43:13;6.73;;;6.23;;
10731;SDS011;5417;42.686;23.244;2023-05-27T07:45:39;7.10;;;6.60;;
10731;SDS011;5417;42.686;23.244;2023-05-27T07:48:06;7.43;;;5.80;;
10731;SDS011;5417;42.686;23.244;2023-05-27T07:50:35;5.10;;;4.80;;
10731;SDS011;5417;42.686;23.244;2023-05-27T07:53:06;4.73;;;4.43;;
10731;SDS011;5417;42.686;23.244;2023-05-27T08:02:01;4.97;;;4.67;;
10731;SDS011;5417;42.686;23.244;2023-05-27T08:04:28;5.77;;;5.30;;
10731;SDS011;5417;42.686;23.244;2023-05-27T08:06:56;5.93;;;5.43;;
10731;SDS011;5417;42.686;23.244;2023-05-27T08:09:23;5.20;;;4.70;;
10731;SDS011;5417;42.686;23.244;2023-05-27T08:11:52;5.43;;;5.13;;
10731;SDS011;5417;42.686;23.244;2023-05-27T08:15:38;7.20;;;6.10;;
10731;SDS011;5417;42.686;23.244;2023-05-27T08:17:45;6.50;;;5.87;;
10731;SDS011;5417;42.686;23.244;2023-05-27T08:20:12;6.97;;;6.10;;
10731;SDS011;5417;42.686;23.244;2023-05-27T08:28:58;6.17;;;5.83;;
10731;SDS011;5417;42.686;23.244;2023-05-27T08:31:26;6.43;;;5.60;;
10731;SDS011;5417;42.686;23.244;2023-05-27T08:37:02;6.53;;;5.77;;
10731;SDS011;5417;42.686;23.244;2023-05-27T08:39:30;6.10;;;5.67;;
10731;SDS011;5417;42.686;23.244;2023-05-27T08:41:59;7.43;;;6.07;;
10731;SDS011;5417;42.686;23.244;2023-05-27T08:44:27;6.60;;;6.20;;
10731;SDS011;5417;42.686;23.244;2023-05-27T08:52:49;5.67;;;5.30;;
10731;SDS011;5417;42.686;23.244;2023-05-27T08:55:19;5.47;;;5.17;;
10731;SDS011;5417;42.686;23.244;2023-05-27T09:03:12;7.93;;;7.20;;
10731;SDS011;5417;42.686;23.244;2023-05-27T09:05:40;7.00;;;5.77;;
10731;SDS011;5417;42.686;23.244;2023-05-27T09:08:10;6.13;;;5.70;;
10731;SDS011;5417;42.686;23.244;2023-05-27T09:16:30;6.50;;;5.90;;
10731;SDS011;5417;42.686;23.244;2023-05-27T09:19:13;6.67;;;6.07;;
10731;SDS011;5417;42.686;23.244;2023-05-27T09:25:23;5.73;;;5.23;;
10731;SDS011;5417;42.686;23.244;2023-05-27T09:28:14;6.20;;;5.40;;
10731;SDS011;5417;42.686;23.244;2023-05-27T09:31:28;5.50;;;5.10;;
10731;SDS011;5417;42.686;23.244;2023-05-27T09:37:12;5.90;;;5.37;;
10731;SDS011;5417;42.686;23.244;2023-05-27T09:40:04;6.00;;;5.60;;
10731;SDS011;5417;42.686;23.244;2023-05-27T09:46:30;6.23;;;5.63;;
10731;SDS011;5417;42.686;23.244;2023-05-27T09:52:02;6.70;;;5.57;;
10731;SDS011;5417;42.686;23.244;2023-05-27T10:07:43;6.00;;;5.43;;
10731;SDS011;5417;42.686;23.244;2023-05-27T10:10:16;5.57;;;5.17;;
10731;SDS011;5417;42.686;23.244;2023-05-27T10:12:52;6.47;;;5.87;;
10731;SDS011;5417;42.686;23.244;2023-05-27T10:15:21;5.30;;;5.00;;
10731;SDS011;5417;42.686;23.244;2023-05-27T10:17:53;6.10;;;5.37;;
10731;SDS011;5417;42.686;23.244;2023-05-27T10:20:24;5.73;;;5.33;;
10731;SDS011;5417;42.686;23.244;2023-05-27T10:23:10;15.97;;;14.13;;
10731;SDS011;5417;42.686;23.244;2023-05-27T10:25:45;5.93;;;5.33;;
10731;SDS011;5417;42.686;23.244;2023-05-27T10:28:27;5.67;;;5.37;;
10731;SDS011;5417;42.686;23.244;2023-05-27T10:31:15;5.80;;;5.40;;
10731;SDS011;5417;42.686;23.244;2023-05-27T10:34:27;5.93;;;5.60;;
10731;SDS011;5417;42.686;23.244;2023-05-27T10:36:46;5.43;;;5.07;;
10731;SDS011;5417;42.686;23.244;2023-05-27T10:42:07;5.37;;;4.97;;
10731;SDS011;5417;42.686;23.244;2023-05-27T10:48:49;5.60;;;5.13;;
10731;SDS011;5417;42.686;23.244;2023-05-27T10:51:47;5.47;;;5.00;;
10731;SDS011;5417;42.686;23.244;2023-05-27T10:54:47;5.63;;;5.27;;
10731;SDS011;5417;42.686;23.244;2023-05-27T10:57:55;6.27;;;5.40;;
10731;SDS011;5417;42.686;23.244;2023-05-27T11:03:34;5.43;;;4.77;;
10731;SDS011;5417;42.686;23.244;2023-05-27T11:33:47;6.10;;;5.63;;
10731;SDS011;5417;42.686;23.244;2023-05-27T11:36:18;6.37;;;5.97;;
10731;SDS011;5417;42.686;23.244;2023-05-27T11:38:47;4.93;;;4.63;;
10731;SDS011;5417;42.686;23.244;2023-05-27T11:41:47;5.77;;;5.37;;
10731;SDS011;5417;42.686;23.244;2023-05-27T11:44:56;5.83;;;5.40;;
10731;SDS011;5417;42.686;23.244;2023-05-27T11:47:20;5.13;;;4.83;;
10731;SDS011;5417;42.686;23.244;2023-05-27T11:49:49;6.90;;;5.57;;
10731;SDS011;5417;42.686;23.244;2023-05-27T11:52:17;5.60;;;5.30;;
10731;SDS011;5417;42.686;23.244;2023-05-27T11:54:52;6.37;;;5.87;;
10731;SDS011;5417;42.686;23.244;2023-05-27T11:57:52;5.70;;;5.40;;
10731;SDS011;5417;42.686;23.244;2023-05-27T12:01:29;5.83;;;5.43;;
10731;SDS011;5417;42.686;23.244;2023-05-27T12:03:38;6.90;;;5.63;;
10731;SDS011;5417;42.686;23.244;2023-05-27T12:06:08;6.27;;;5.87;;
10731;SDS011;5417;42.686;23.244;2023-05-27T12:08:40;6.53;;;6.13;;
10731;SDS011;5417;42.686;23.244;2023-05-27T12:11:07;6.07;;;5.50;;
10731;SDS011;5417;42.686;23.244;2023-05-27T12:13:40;5.70;;;5.40;;
10731;SDS011;5417;42.686;23.244;2023-05-27T12:16:07;7.00;;;6.23;;
10731;SDS011;5417;42.686;23.244;2023-05-27T12:45:47;7.10;;;5.40;;
10731;SDS011;5417;42.686;23.244;2023-05-27T12:48:14;5.10;;;4.80;;
10731;SDS011;5417;42.686;23.244;2023-05-27T13:05:23;6.17;;;5.77;;
10731;SDS011;5417;42.686;23.244;2023-05-27T13:14:12;6.20;;;5.80;;
10731;SDS011;5417;42.686;23.244;2023-05-27T13:16:39;5.97;;;5.67;;
10731;SDS011;5417;42.686;23.244;2023-05-27T13:19:08;6.30;;;5.80;;
10731;SDS011;5417;42.686;23.244;2023-05-27T13:25:03;6.40;;;6.00;;
10731;SDS011;5417;42.686;23.244;2023-05-27T13:27:30;6.43;;;6.03;;
10731;SDS011;5417;42.686;23.244;2023-05-27T13:29:57;5.80;;;5.50;;
10731;SDS011;5417;42.686;23.244;2023-05-27T13:32:24;5.50;;;5.20;;
10731;SDS011;5417;42.686;23.244;2023-05-27T13:34:53;5.60;;;5.20;;
10731;SDS011;5417;42.686;23.244;2023-05-27T13:37:21;5.70;;;5.20;;
10731;SDS011;5417;42.686;23.244;2023-05-27T13:39:48;5.50;;;5.07;;
10731;SDS011;5417;42.686;23.244;2023-05-27T13:42:15;5.80;;;5.40;;
10731;SDS011;5417;42.686;23.244;2023-05-27T13:44:41;7.70;;;5.60;;
10731;SDS011;5417;42.686;23.244;2023-05-27T13:47:08;5.53;;;5.13;;
10731;SDS011;5417;42.686;23.244;2023-05-27T13:49:35;5.43;;;5.13;;
10731;SDS011;5417;42.686;23.244;2023-05-27T14:01:25;5.60;;;5.20;;
10731;SDS011;5417;42.686;23.244;2023-05-27T14:11:00;5.70;;;5.30;;
10731;SDS011;5417;42.686;23.244;2023-05-27T14:13:20;5.47;;;5.07;;
10731;SDS011;5417;42.686;23.244;2023-05-27T14:15:47;5.43;;;4.90;;
10731;SDS011;5417;42.686;23.244;2023-05-27T14:24:25;5.23;;;4.93;;
10731;SDS011;5417;42.686;23.244;2023-05-27T14:26:56;5.33;;;5.03;;
10731;SDS011;5417;42.686;23.244;2023-05-27T14:30:01;5.13;;;4.80;;
10731;SDS011;5417;42.686;23.244;2023-05-27T14:32:13;5.97;;;5.57;;
10731;SDS011;5417;42.686;23.244;2023-05-27T14:34:42;4.80;;;4.50;;
10731;SDS011;5417;42.686;23.244;2023-05-27T14:37:09;5.80;;;5.33;;
10731;SDS011;5417;42.686;23.244;2023-05-27T14:43:15;6.60;;;5.43;;
10731;SDS011;5417;42.686;23.244;2023-05-27T14:45:42;5.43;;;5.03;;
10731;SDS011;5417;42.686;23.244;2023-05-27T14:49:15;5.67;;;5.17;;
10731;SDS011;5417;42.686;23.244;2023-05-27T14:51:25;5.67;;;5.20;;
10731;SDS011;5417;42.686;23.244;2023-05-27T14:54:29;5.17;;;4.87;;
10731;SDS011;5417;42.686;23.244;2023-05-27T14:56:45;15.83;;;13.73;;
10731;SDS011;5417;42.686;23.244;2023-05-27T14:59:13;6.50;;;5.93;;
10731;SDS011;5417;42.686;23.244;2023-05-27T15:01:41;6.43;;;5.83;;
10731;SDS011;5417;42.686;23.244;2023-05-27T15:07:36;7.27;;;6.67;;
10731;SDS011;5417;42.686;23.244;2023-05-27T15:10:34;5.60;;;5.20;;
10731;SDS011;5417;42.686;23.244;2023-05-27T15:12:56;5.33;;;5.03;;
10731;SDS011;5417;42.686;23.244;2023-05-27T15:18:41;5.20;;;4.70;;
10731;SDS011;5417;42.686;23.244;2023-05-27T15:21:34;5.93;;;5.60;;
10731;SDS011;5417;42.686;23.244;2023-05-27T15:24:03;6.10;;;5.60;;
10731;SDS011;5417;42.686;23.244;2023-05-27T15:28:12;7.03;;;6.53;;
10731;SDS011;5417;42.686;23.244;2023-05-27T15:29:43;5.60;;;5.20;;
10731;SDS011;5417;42.686;23.244;2023-05-27T15:32:11;5.33;;;5.00;;
10731;SDS011;5417;42.686;23.244;2023-05-27T15:35:11;5.40;;;5.00;;
10731;SDS011;5417;42.686;23.244;2023-05-27T15:37:34;5.73;;;5.10;;
10731;SDS011;5417;42.686;23.244;2023-05-27T15:42:50;5.93;;;5.40;;
10731;SDS011;5417;42.686;23.244;2023-05-27T15:45:17;6.00;;;5.57;;
10731;SDS011;5417;42.686;23.244;2023-05-27T15:47:44;6.13;;;5.63;;
10731;SDS011;5417;42.686;23.244;2023-05-27T15:50:10;5.93;;;5.50;;
10731;SDS011;5417;42.686;23.244;2023-05-27T15:52:37;7.37;;;6.70;;
10731;SDS011;5417;42.686;23.244;2023-05-27T15:55:09;5.40;;;5.00;;
10731;SDS011;5417;42.686;23.244;2023-05-27T16:00:22;5.80;;;5.30;;
10731;SDS011;5417;42.686;23.244;2023-05-27T16:02:51;6.70;;;5.80;;
10731;SDS011;5417;42.686;23.244;2023-05-27T16:05:18;5.63;;;5.20;;
10731;SDS011;5417;42.686;23.244;2023-05-27T16:07:46;6.03;;;5.50;;
10731;SDS011;5417;42.686;23.244;2023-05-27T16:10:13;6.47;;;5.93;;
10731;SDS011;5417;42.686;23.244;2023-05-27T16:15:23;6.70;;;5.93;;
10731;SDS011;5417;42.686;23.244;2023-05-27T16:17:50;6.27;;;5.73;;
10731;SDS011;5417;42.686;23.244;2023-05-27T16:20:21;5.87;;;5.57;;
10731;SDS011;5417;42.686;23.244;2023-05-27T16:22:50;6.30;;;5.80;;
10731;SDS011;5417;42.686;23.244;2023-05-27T16:25:17;6.23;;;5.80;;
10731;SDS011;5417;42.686;23.244;2023-05-27T16:27:49;6.13;;;5.63;;
10731;SDS011;5417;42.686;23.244;2023-05-27T16:30:17;6.70;;;6.20;;
10731;SDS011;5417;42.686;23.244;2023-05-27T16:32:50;7.33;;;6.20;;
10731;SDS011;5417;42.686;23.244;2023-05-27T16:35:26;6.27;;;5.87;;
10731;SDS011;5417;42.686;23.244;2023-05-27T16:37:53;7.20;;;6.67;;
10731;SDS011;5417;42.686;23.244;2023-05-27T16:40:19;6.27;;;5.87;;
10731;SDS011;5417;42.686;23.244;2023-05-27T16:42:46;6.73;;;6.20;;
10731;SDS011;5417;42.686;23.244;2023-05-27T16:45:13;7.90;;;6.33;;
10731;SDS011;5417;42.686;23.244;2023-05-27T16:47:42;6.87;;;6.27;;
10731;SDS011;5417;42.686;23.244;2023-05-27T16:50:10;7.80;;;7.03;;
10731;SDS011;5417;42.686;23.244;2023-05-27T16:52:37;6.63;;;6.23;;
10731;SDS011;5417;42.686;23.244;2023-05-27T16:55:05;7.33;;;6.83;;
10731;SDS011;5417;42.686;23.244;2023-05-27T16:57:32;6.80;;;6.30;;
10731;SDS011;5417;42.686;23.244;2023-05-27T16:59:59;7.13;;;6.63;;
10731;SDS011;5417;42.686;23.244;2023-05-27T17:02:28;7.77;;;6.93;;
10731;SDS011;5417;42.686;23.244;2023-05-27T17:05:00;8.37;;;6.70;;
10731;SDS011;5417;42.686;23.244;2023-05-27T17:07:27;7.20;;;6.70;;
10731;SDS011;5417;42.686;23.244;2023-05-27T17:09:54;7.73;;;7.20;;
10731;SDS011;5417;42.686;23.244;2023-05-27T17:12:22;7.10;;;6.53;;
10731;SDS011;5417;42.686;23.244;2023-05-27T17:14:49;8.07;;;7.33;;
10731;SDS011;5417;42.686;23.244;2023-05-27T17:17:18;7.77;;;7.27;;
10731;SDS011;5417;42.686;23.244;2023-05-27T17:19:45;8.33;;;7.83;;
10731;SDS011;5417;42.686;23.244;2023-05-27T17:22:14;7.40;;;6.87;;
10731;SDS011;5417;42.686;23.244;2023-05-27T17:24:41;7.70;;;7.20;;
10731;SDS011;5417;42.686;23.244;2023-05-27T17:27:08;8.07;;;7.27;;
10731;SDS011;5417;42.686;23.244;2023-05-27T17:29:36;8.33;;;7.40;;
10731;SDS011;5417;42.686;23.244;2023-05-27T17:32:19;8.40;;;7.70;;
10731;SDS011;5417;42.686;23.244;2023-05-27T17:34:46;7.73;;;7.10;;
10731;SDS011;5417;42.686;23.244;2023-05-27T17:37:14;8.60;;;8.00;;
10731;SDS011;5417;42.686;23.244;2023-05-27T17:39:42;8.63;;;7.83;;
10731;SDS011;5417;42.686;23.244;2023-05-27T17:42:08;8.57;;;7.80;;
10731;SDS011;5417;42.686;23.244;2023-05-27T17:44:35;9.53;;;8.63;;
10731;SDS011;5417;42.686;23.244;2023-05-27T17:47:02;12.53;;;10.90;;
10731;SDS011;5417;42.686;23.244;2023-05-27T17:49:32;9.33;;;8.60;;
10731;SDS011;5417;42.686;23.244;2023-05-27T17:51:59;9.03;;;8.30;;
10731;SDS011;5417;42.686;23.244;2023-05-27T17:54:29;9.37;;;8.33;;
10731;SDS011;5417;42.686;23.244;2023-05-27T17:56:56;8.80;;;8.00;;
10731;SDS011;5417;42.686;23.244;2023-05-27T17:59:23;8.67;;;8.07;;
10731;SDS011;5417;42.686;23.244;2023-05-27T18:01:51;8.97;;;8.20;;
10731;SDS011;5417;42.686;23.244;2023-05-27T18:04:19;9.10;;;8.40;;
10731;SDS011;5417;42.686;23.244;2023-05-27T18:06:51;8.13;;;7.43;;
10731;SDS011;5417;42.686;23.244;2023-05-27T18:09:25;8.60;;;7.87;;
10731;SDS011;5417;42.686;23.244;2023-05-27T18:11:53;24.97;;;22.57;;
10731;SDS011;5417;42.686;23.244;2023-05-27T18:14:20;12.63;;;11.47;;
10731;SDS011;5417;42.686;23.244;2023-05-27T18:16:46;10.50;;;9.50;;
10731;SDS011;5417;42.686;23.244;2023-05-27T18:19:14;10.43;;;9.13;;
10731;SDS011;5417;42.686;23.244;2023-05-27T18:21:41;9.30;;;8.50;;
10731;SDS011;5417;42.686;23.244;2023-05-27T18:24:08;9.43;;;8.53;;
10731;SDS011;5417;42.686;23.244;2023-05-27T18:26:37;8.83;;;7.90;;
10731;SDS011;5417;42.686;23.244;2023-05-27T18:29:06;14.53;;;13.23;;
10731;SDS011;5417;42.686;23.244;2023-05-27T18:31:33;10.47;;;9.60;;
10731;SDS011;5417;42.686;23.244;2023-05-27T18:34:00;11.57;;;10.50;;
10731;SDS011;5417;42.686;23.244;2023-05-27T18:36:27;9.97;;;9.17;;
10731;SDS011;5417;42.686;23.244;2023-05-27T18:38:53;10.23;;;9.33;;
10731;SDS011;5417;42.686;23.244;2023-05-27T18:41:20;9.87;;;9.07;;
10731;SDS011;5417;42.686;23.244;2023-05-27T18:43:55;10.80;;;9.80;;
10731;SDS011;5417;42.686;23.244;2023-05-27T18:46:24;11.30;;;9.50;;
10731;SDS011;5417;42.686;23.244;2023-05-27T18:48:50;10.70;;;9.67;;
10731;SDS011;5417;42.686;23.244;2023-05-27T18:51:17;10.77;;;9.70;;
10731;SDS011;5417;42.686;23.244;2023-05-27T18:53:44;9.80;;;8.83;;
10731;SDS011;5417;42.686;23.244;2023-05-27T18:56:11;8.93;;;8.23;;
10731;SDS011;5417;42.686;23.244;2023-05-27T18:58:38;8.63;;;7.93;;
10731;SDS011;5417;42.686;23.244;2023-05-27T19:01:05;8.13;;;7.37;;
10731;SDS011;5417;42.686;23.244;2023-05-27T19:03:33;7.47;;;6.97;;
10731;SDS011;5417;42.686;23.244;2023-05-27T19:06:02;8.57;;;7.87;;
10731;SDS011;5417;42.686;23.244;2023-05-27T19:08:29;8.90;;;7.77;;
10731;SDS011;5417;42.686;23.244;2023-05-27T19:11:26;9.37;;;8.10;;
10731;SDS011;5417;42.686;23.244;2023-05-27T19:17:21;5.70;;;5.20;;
10731;SDS011;5417;42.686;23.244;2023-05-27T19:19:50;4.97;;;4.67;;
10731;SDS011;5417;42.686;23.244;2023-05-27T19:22:47;4.53;;;3.80;;
10731;SDS011;5417;42.686;23.244;2023-05-27T19:25:07;4.60;;;4.30;;
10731;SDS011;5417;42.686;23.244;2023-05-27T19:27:36;4.77;;;4.30;;
10731;SDS011;5417;42.686;23.244;2023-05-27T19:30:03;5.20;;;4.00;;
10731;SDS011;5417;42.686;23.244;2023-05-27T19:35:09;3.80;;;3.50;;
10731;SDS011;5417;42.686;23.244;2023-05-27T19:37:50;6.30;;;3.80;;
10731;SDS011;5417;42.686;23.244;2023-05-27T19:41:12;4.60;;;3.70;;
10731;SDS011;5417;42.686;23.244;2023-05-27T19:44:47;4.83;;;4.43;;
10731;SDS011;5417;42.686;23.244;2023-05-27T19:47:36;5.13;;;4.70;;
10731;SDS011;5417;42.686;23.244;2023-05-27T19:50:24;4.73;;;4.43;;
10731;SDS011;5417;42.686;23.244;2023-05-27T19:52:58;4.73;;;4.33;;
10731;SDS011;5417;42.686;23.244;2023-05-27T19:55:30;4.80;;;4.40;;
10731;SDS011;5417;42.686;23.244;2023-05-27T19:57:58;4.80;;;4.40;;
10731;SDS011;5417;42.686;23.244;2023-05-27T20:00:29;5.37;;;4.63;;
10731;SDS011;5417;42.686;23.244;2023-05-27T20:02:56;4.80;;;4.50;;
10731;SDS011;5417;42.686;23.244;2023-05-27T20:05:23;5.37;;;4.90;;
10731;SDS011;5417;42.686;23.244;2023-05-27T20:07:51;5.63;;;4.90;;
10731;SDS011;5417;42.686;23.244;2023-05-27T20:10:48;5.20;;;4.83;;
10731;SDS011;5417;42.686;23.244;2023-05-27T20:13:12;5.13;;;4.70;;
10731;SDS011;5417;42.686;23.244;2023-05-27T20:16:20;6.00;;;5.43;;
10731;SDS011;5417;42.686;23.244;2023-05-27T20:19:16;5.33;;;4.70;;
10731;SDS011;5417;42.686;23.244;2023-05-27T20:22:20;5.67;;;5.27;;
10731;SDS011;5417;42.686;23.244;2023-05-27T20:24:46;5.97;;;5.43;;
10731;SDS011;5417;42.686;23.244;2023-05-27T20:27:21;6.07;;;5.67;;
10731;SDS011;5417;42.686;23.244;2023-05-27T20:29:54;6.20;;;5.03;;
10731;SDS011;5417;42.686;23.244;2023-05-27T20:32:29;5.63;;;5.20;;
10731;SDS011;5417;42.686;23.244;2023-05-27T20:35:20;6.00;;;5.60;;
10731;SDS011;5417;42.686;23.244;2023-05-27T20:40:57;6.30;;;5.47;;
10731;SDS011;5417;42.686;23.244;2023-05-27T20:43:31;6.23;;;5.67;;
10731;SDS011;5417;42.686;23.244;2023-05-27T20:46:14;6.40;;;5.90;;
10731;SDS011;5417;42.686;23.244;2023-05-27T20:48:42;6.20;;;5.73;;
10731;SDS011;5417;42.686;23.244;2023-05-27T20:51:09;5.70;;;5.30;;
10731;SDS011;5417;42.686;23.244;2023-05-27T20:53:41;6.40;;;5.80;;
10731;SDS011;5417;42.686;23.244;2023-05-27T21:02:36;6.13;;;5.63;;
10731;SDS011;5417;42.686;23.244;2023-05-27T21:05:03;8.57;;;7.87;;
10731;SDS011;5417;42.686;23.244;2023-05-27T21:07:31;6.23;;;5.73;;
10731;SDS011;5417;42.686;23.244;2023-05-27T21:11:00;5.80;;;5.20;;
10731;SDS011;5417;42.686;23.244;2023-05-27T21:13:34;4.87;;;4.50;;
10731;SDS011;5417;42.686;23.244;2023-05-27T21:16:01;5.73;;;5.17;;
10731;SDS011;5417;42.686;23.244;2023-05-27T21:58:19;7.43;;;5.47;;
10731;SDS011;5417;42.686;23.244;2023-05-27T22:27:24;6.50;;;5.93;;
10731;SDS011;5417;42.686;23.244;2023-05-27T22:29:51;6.07;;;5.57;;
10731;SDS011;5417;42.686;23.244;2023-05-27T22:32:18;6.30;;;5.87;;
10731;SDS011;5417;42.686;23.244;2023-05-27T22:42:54;5.90;;;5.50;;
10731;SDS011;5417;42.686;23.244;2023-05-27T22:45:12;6.80;;;6.37;;
10731;SDS011;5417;42.686;23.244;2023-05-27T22:48:09;6.93;;;6.07;;
10731;SDS011;5417;42.686;23.244;2023-05-27T22:51:33;6.10;;;5.73;;
10731;SDS011;5417;42.686;23.244;2023-05-27T22:57:13;7.00;;;6.40;;
10731;SDS011;5417;42.686;23.244;2023-05-27T22:59:41;6.60;;;6.00;;
10731;SDS011;5417;42.686;23.244;2023-05-27T23:02:08;5.63;;;5.33;;
10731;SDS011;5417;42.686;23.244;2023-05-27T23:31:04;5.17;;;4.70;;
10731;SDS011;5417;42.686;23.244;2023-05-27T23:38:08;5.33;;;4.83;;
10731;SDS011;5417;42.686;23.244;2023-05-27T23:43:52;5.10;;;4.70;;
10731;SDS011;5417;42.686;23.244;2023-05-27T23:46:47;5.10;;;4.80;;
10731;SDS011;5417;42.686;23.244;2023-05-27T23:49:07;5.67;;;5.07;;
